»·PEaware :: N6471M KDEN-KASE

N6471M :: KDEN-KASE

FLIGHT INFORMATION

Flight Status: Arrived
Operator: Privately registered:
United States
More flights under this callsign
Pilot: Peter U. (18953)
Aircraft: SAAB 340
(SF34)
More flights by this aircraft type
Origin: KDEN Denver Intl
United States
Destination: KASE Aspen-Pitkin Co/Sardy
United States
More flights between these airports :: More routes between these airports
Route: ROCKI3 DBL
File this flight plan on PilotEdge
Remarks:
Altitude:
(Current/Filed)
18,000ft
Speed:
(Current/Filed)
180kts
Departed: 28-Apr-18 08:16 PM
Arrived: 28-Apr-18 08:52 PM
Distance/Time
Traveled:
109nm/0:36
Distance/Time
To Go:
Arrived

Flight Plot

Page will automatically refresh every two minutes.


Map Options




Map Legend


Flown Route
Filed Route
Departure Airport
Arrival Airport
Navaid (VOR, NDB)
Fix

Horizontal Profiles

Position Reports

Time Latitude Longitude Heading Altitude Ground
Speed
28-Apr-18 19:53 39.838725 -104.665330 250 5439ft 0kts
28-Apr-18 19:54 39.838725 -104.665330 250 5439ft 0kts
28-Apr-18 19:55 39.838725 -104.665330 250 5439ft 0kts
28-Apr-18 19:56 39.838725 -104.665330 250 5439ft 0kts
28-Apr-18 19:57 39.838725 -104.665330 250 5439ft 0kts
28-Apr-18 19:58 39.838725 -104.665330 250 5439ft 0kts
28-Apr-18 19:59 39.838725 -104.665330 250 5439ft 0kts
28-Apr-18 20:00 39.838725 -104.665330 250 5439ft 0kts
28-Apr-18 20:01 39.838725 -104.665330 250 5439ft 0kts
28-Apr-18 20:02 39.838725 -104.665330 250 5439ft 0kts
28-Apr-18 20:03 39.838725 -104.665330 250 5439ft 0kts
28-Apr-18 20:04 39.838725 -104.665330 250 5439ft 0kts
28-Apr-18 20:05 39.838725 -104.665331 250 5439ft 0kts
28-Apr-18 20:06 39.838678 -104.664420 37 5439ft 8kts
28-Apr-18 20:07 39.840724 -104.662537 6 5439ft 12kts
28-Apr-18 20:08 39.845538 -104.662450 0 5439ft 18kts
28-Apr-18 20:09 39.851430 -104.662376 359 5439ft 23kts
28-Apr-18 20:10 39.857698 -104.662287 0 5439ft 19kts
28-Apr-18 20:11 39.861028 -104.661655 91 5439ft 0kts
28-Apr-18 20:12 39.861028 -104.661655 91 5439ft 0kts
28-Apr-18 20:13 39.861029 -104.661654 91 5439ft 0kts
28-Apr-18 20:14 39.860746 -104.660150 175 5439ft 5kts
28-Apr-18 20:15 39.838152 -104.660750 187 5577ft 146kts
28-Apr-18 20:16 39.817595 -104.711606 248 7300ft 177kts
28-Apr-18 20:17 39.804898 -104.773911 252 8907ft 181kts
28-Apr-18 20:18 39.816180 -104.841187 277 10423ft 190kts
28-Apr-18 20:19 39.825254 -104.907412 259 11859ft 181kts
28-Apr-18 20:20 39.819356 -104.971706 258 13028ft 180kts
28-Apr-18 20:21 39.810979 -105.036603 259 13912ft 185kts
28-Apr-18 20:22 39.800825 -105.103289 259 14786ft 191kts
28-Apr-18 20:23 39.790106 -105.170464 259 15772ft 188kts
28-Apr-18 20:24 39.779386 -105.237690 259 16526ft 190kts
28-Apr-18 20:25 39.768684 -105.305077 259 17054ft 191kts
28-Apr-18 20:26 39.757935 -105.373162 259 17789ft 193kts
28-Apr-18 20:27 39.748738 -105.431835 259 18032ft 209kts
28-Apr-18 20:28 39.736695 -105.509411 259 18059ft 228kts
28-Apr-18 20:29 39.724014 -105.591610 259 18106ft 235kts
28-Apr-18 20:30 39.711512 -105.672996 258 18121ft 239kts
28-Apr-18 20:31 39.696297 -105.772350 259 18120ft 241kts
28-Apr-18 20:32 39.670874 -105.850212 233 18138ft 243kts
28-Apr-18 20:33 39.647971 -105.931509 253 18132ft 242kts
28-Apr-18 20:34 39.631821 -106.001437 254 18135ft 242kts
28-Apr-18 20:35 39.613632 -106.085578 255 18141ft 242kts
28-Apr-18 20:36 39.595925 -106.169933 255 18155ft 242kts
28-Apr-18 20:37 39.577747 -106.255303 255 17547ft 256kts
28-Apr-18 20:38 39.558905 -106.343865 255 16923ft 254kts
28-Apr-18 20:39 39.540774 -106.429197 255 16122ft 252kts
28-Apr-18 20:40 39.523017 -106.511946 255 15997ft 226kts
28-Apr-18 20:41 39.506380 -106.588794 256 15974ft 224kts
28-Apr-18 20:42 39.489321 -106.667414 255 15182ft 253kts
28-Apr-18 20:43 39.470678 -106.752766 255 14976ft 238kts
28-Apr-18 20:44 39.452026 -106.837932 255 14207ft 245kts
28-Apr-18 20:45 39.432813 -106.915410 246 13977ft 205kts
28-Apr-18 20:46 39.402809 -106.964552 169 13425ft 178kts
28-Apr-18 20:47 39.362718 -106.934617 164 12898ft 169kts
28-Apr-18 20:48 39.320836 -106.913942 164 11345ft 158kts
28-Apr-18 20:49 39.279444 -106.895344 160 9131ft 155kts
28-Apr-18 20:50 39.238602 -106.876287 162 7998ft 152kts
28-Apr-18 20:51 39.216820 -106.865437 81 7841ft 11kts
28-Apr-18 20:52 39.218471 -106.865266 36 7841ft 6kts
28-Apr-18 20:53 39.218780 -106.864325 72 7841ft 0kts
28-Apr-18 20:54 39.218780 -106.864325 72 7841ft 0kts
28-Apr-18 20:55 39.218780 -106.864325 72 7841ft 0kts

Navigation Log

Ident Type
1. KDEN Airport
2. DEN Navaid
3. CONNR Fix
4. DBL Navaid
5. KASE Airport